ENNO Airport Information

Runway Information
Runway 12 Length 5745 ft width 148 ft Elevation 61 ft Threshold 2072 ft Heading 127
Runway 30 Length 5745 ft Width 148 ft Elevation 58 ft Threshold N/A Heading 307
Airport Frequencies
Type AFIS Name INFO Frequency 118.8 MHZ
Airport Navaids
Type NDB Name Notodden Frequency 400 KHZ
Airport Weather Information & NOTAM
ADDS - METARS form results

(1101 UTC 30 January 2023)
Data provider http://aviationweather.gov/metar/data/
 
METAR text: ENNO 301050Z 29009KT CAVOK 03/M04 Q0990
Conditions at: ENNO (NOTODDEN , NO) observed 1050 UTC 30 January 2023
Temperature: 3.0°C (37°F)
Dewpoint: -4.0°C (25°F) [RH = 60%]
Pressure (altimeter): 29.23 inches Hg (990.0 mb)
Winds: from the WNW (290 degrees) at 10 MPH (9 knots; 4.6 m/s)
Visibility: 6 or more miles (10+ km)
Ceiling: ceiling and visibility are OK
Clouds: unknown
Weather: no significant weather observed at this time

METAR text: ENNO 301020Z 29011KT CAVOK M01/M04 Q0989
Conditions at: ENNO (NOTODDEN , NO) observed 1020 UTC 30 January 2023
Temperature: -1.0°C (30°F)
Dewpoint: -4.0°C (25°F) [RH = 80%]
Pressure (altimeter): 29.20 inches Hg (989.0 mb)
Winds: from the WNW (290 degrees) at 13 MPH (11 knots; 5.7 m/s)
Visibility: 6 or more miles (10+ km)
Ceiling: ceiling and visibility are OK
Clouds: unknown
Weather: no significant weather observed at this time

Forecast for: ENNO (NOTODDEN , NO)
Text: TAF ENNO 300800Z 3009/3018 30008KT CAVOK
Forecast period: 0900 to 1800 UTC 30 January 2023
Forecast type: FROM: standard forecast or significant change
Winds: from the WNW (300 degrees) at 9 MPH (8 knots; 4.1 m/s)
Visibility: 6 or more miles (10+ km)
Ceiling: unknown
Clouds: missing
Weather: NSW  (no significant weather)
Text: TEMPO 3010/3018 31015G25KT
Forecast period: 1000 to 1800 UTC 30 January 2023
Forecast type: TEMPORARY: The following changes expected for less than half the time period
Winds: from the NW (310 degrees) at 17 MPH (15 knots; 7.7 m/s)
gusting to 29 MPH (25 knots; 12.9 m/s)
Visibility: missing
Ceiling: unknown
Clouds: missing
Weather: no significant weather forecast for this period